Terminal Aerodrome Forecast
Issued by NWS

Home | Current Version | Previous Version | Text Only | Print | Product List | Glossary On
Versions: 1 2 3 4 5 6 7 8 9 10 11 12 13 14 15 16 17 18 19
000
FTUS45 KREV 262300
TAFTRK
TAF
KTRK 262320Z 2700/2724 35008KT P6SM SCT050 BKN140
     FM270100 VRB03KT P6SM BKN040 BKN070
     FM271500 25008G15KT P6SM VCSH BKN040 OVC070
     FM271800 26005KT P6SM -SN BKN030 OVC060=

USA.gov is the U.S. government's official web portal to all federal, state and local government web resources and services.